Time;durP1;ratioP1;P1;durP2;ratioP2;P2;SDS_P1;SDS_P2;PMS_P1;PMS_P2;Temp;Humidity;BMP_temperature;BMP_pressure;BME280_temperature;BME280_humidity;BME280_pressure;Samples;Min_cycle;Max_cycle;Signal;HPM_P1;HPM_P2
2024/02/23 00:00:10;;;;;;;0.75;0.60;;;7.60;99.90;;;;;;4973254;28;20204;-90
2024/02/23 00:02:40;;;;;;;0.50;0.50;;;7.50;99.90;;;;;;4959178;28;20196;-88
2024/02/23 00:05:08;;;;;;;0.68;0.68;;;7.50;99.90;;;;;;4977343;28;20215;-89
2024/02/23 00:07:35;;;;;;;0.85;0.45;;;7.40;99.90;;;;;;4971387;28;20204;-89
2024/02/23 00:10:02;;;;;;;0.40;0.40;;;7.40;99.90;;;;;;4975741;28;20307;-88
2024/02/23 00:12:44;;;;;;;0.45;0.45;;;7.40;99.90;;;;;;4976032;28;20201;-87
2024/02/23 00:22:04;;;;;;;0.32;0.32;;;7.40;99.90;;;;;;4988815;28;20235;-88
2024/02/23 00:24:31;;;;;;;0.35;0.35;;;7.40;99.90;;;;;;4979382;28;20247;-88
2024/02/23 00:27:00;;;;;;;0.30;0.30;;;7.40;99.90;;;;;;4996346;28;20207;-88
2024/02/23 00:29:32;;;;;;;0.52;0.50;;;7.40;99.90;;;;;;4995735;28;20219;-88
2024/02/23 05:09:50;;;;;;;1.73;1.63;;;6.20;98.30;;;;;;6138656;23;20190;-88
2024/02/23 05:12:17;;;;;;;0.68;0.40;;;6.30;98.10;;;;;;4957807;28;20220;-88
2024/02/23 05:14:44;;;;;;;0.50;0.50;;;6.20;97.90;;;;;;4975957;28;20192;-88
2024/02/23 05:17:25;;;;;;;0.40;0.40;;;6.20;99.00;;;;;;4975723;28;20627;-88
2024/02/23 05:20:30;;;;;;;0.50;0.50;;;6.20;98.60;;;;;;4974692;28;20204;-88
2024/02/23 05:22:57;;;;;;;0.50;0.50;;;6.20;99.30;;;;;;4975807;28;20276;-86
2024/02/23 05:25:27;;;;;;;0.30;0.30;;;6.00;99.70;;;;;;4976002;28;20553;-87
2024/02/23 05:52:05;;;;;;;0.50;0.50;;;6.20;99.90;;;;;;4976458;28;20588;-89
2024/02/23 06:21:14;;;;;;;1.30;0.52;;;6.00;99.60;;;;;;5018171;28;20183;-91
2024/02/23 06:23:41;;;;;;;2.08;0.55;;;6.10;99.90;;;;;;5017876;28;20229;-89
2024/02/23 06:26:09;;;;;;;1.05;0.50;;;6.30;99.90;;;;;;5018526;28;20199;-89
2024/02/23 06:40:15;;;;;;;0.63;0.63;;;6.30;98.20;;;;;;5018549;28;20267;-89
2024/02/23 06:43:37;;;;;;;0.60;0.57;;;6.50;97.80;;;;;;5021010;28;20627;-93
2024/02/23 06:46:08;;;;;;;2.13;0.60;;;6.60;97.70;;;;;;5021537;28;20199;-93
2024/02/23 06:48:35;;;;;;;2.05;0.80;;;6.40;97.50;;;;;;5020792;28;20647;-93
2024/02/23 06:51:17;;;;;;;1.05;0.80;;;6.30;97.30;;;;;;5004053;28;20746;-92
2024/02/23 06:54:04;;;;;;;1.33;0.70;;;6.20;97.90;;;;;;5004244;28;20198;-92
2024/02/23 07:19:07;;;;;;;0.52;0.50;;;6.40;95.90;;;;;;4979537;28;20180;-92
2024/02/23 07:38:45;;;;;;;0.93;0.68;;;6.80;95.40;;;;;;4979186;28;20181;-94
2024/02/23 07:41:37;;;;;;;0.50;0.50;;;6.70;95.40;;;;;;4997225;28;20212;-93
2024/02/23 07:44:04;;;;;;;0.70;0.70;;;6.40;95.80;;;;;;4978541;28;20192;-92
2024/02/23 07:46:31;;;;;;;1.25;0.73;;;6.40;96.30;;;;;;4987065;28;20222;-91
2024/02/23 07:48:58;;;;;;;1.27;0.98;;;6.40;96.60;;;;;;4997403;28;20279;-90
2024/02/23 07:51:28;;;;;;;1.15;0.65;;;6.50;96.10;;;;;;4998509;28;20210;-90
2024/02/23 07:56:35;;;;;;;0.70;0.70;;;6.40;96.00;;;;;;5077336;23;20285;-95
2024/02/23 08:04:06;;;;;;;1.10;0.70;;;6.80;95.40;;;;;;4985393;28;20209;-90
2024/02/23 08:06:45;;;;;;;0.68;0.65;;;6.80;94.80;;;;;;4958185;29;20194;-91
2024/02/23 08:09:13;;;;;;;1.42;0.77;;;7.00;95.00;;;;;;4959923;28;20213;-91
2024/02/23 08:11:41;;;;;;;0.80;0.75;;;7.30;94.60;;;;;;4993169;28;20590;-90
2024/02/23 08:14:08;;;;;;;4.03;0.90;;;7.50;93.90;;;;;;4981694;28;20204;-89
2024/02/23 08:16:35;;;;;;;1.45;0.60;;;7.50;92.80;;;;;;4977253;28;20261;-89
2024/02/23 08:32:51;;;;;;;2.63;0.65;;;7.90;91.80;;;;;;4996131;28;20184;-91
2024/02/23 08:35:18;;;;;;;1.92;1.00;;;7.90;90.00;;;;;;4996177;28;20294;-90
2024/02/23 08:37:45;;;;;;;2.20;0.95;;;7.60;91.60;;;;;;4979698;28;20212;-93
2024/02/23 08:40:13;;;;;;;1.08;0.90;;;7.80;91.10;;;;;;4996482;28;20228;-90
2024/02/23 08:46:01;;;;;;;1.83;0.70;;;7.40;92.00;;;;;;4997274;28;20600;-91
2024/02/23 09:47:11;;;;;;;2.17;0.73;;;6.90;88.50;;;;;;5014259;28;20213;-92
2024/02/23 09:53:54;;;;;;;1.80;0.70;;;6.80;90.00;;;;;;5023023;28;20182;-90
2024/02/23 10:14:35;;;;;;;3.45;1.88;;;7.00;87.50;;;;;;6178046;23;20193;-88
2024/02/23 10:17:51;;;;;;;1.80;0.85;;;7.10;88.30;;;;;;5011405;28;20223;-93
2024/02/23 10:20:18;;;;;;;1.38;0.70;;;6.90;89.30;;;;;;5017726;28;20208;-94
2024/02/23 10:22:46;;;;;;;3.35;0.82;;;7.00;90.00;;;;;;5019751;28;20207;-91
2024/02/23 10:25:14;;;;;;;1.15;0.60;;;7.10;90.60;;;;;;5016416;28;20193;-90
2024/02/23 10:27:43;;;;;;;0.50;0.50;;;7.10;90.10;;;;;;5017542;28;20195;-92
2024/02/23 10:41:24;;;;;;;1.95;0.50;;;6.80;90.60;;;;;;5013935;28;20194;-90
2024/02/23 10:43:54;;;;;;;0.93;0.73;;;6.80;90.20;;;;;;5013032;28;20200;-89
2024/02/23 10:46:22;;;;;;;1.70;0.98;;;7.00;90.10;;;;;;5014223;28;20294;-89
2024/02/23 10:49:01;;;;;;;1.42;0.80;;;7.00;90.70;;;;;;4998869;28;20199;-88
2024/02/23 10:51:49;;;;;;;2.45;1.00;;;6.90;90.00;;;;;;5000615;28;20247;-92
2024/02/23 10:54:19;;;;;;;1.75;0.80;;;6.70;90.50;;;;;;5011914;28;20198;-91
2024/02/23 11:21:38;;;;;;;1.27;0.80;;;7.10;85.50;;;;;;4997652;28;20206;-89
2024/02/23 11:51:29;;;;;;;0.70;0.70;;;7.00;83.90;;;;;;4986110;28;20282;-88
2024/02/23 11:54:48;;;;;;;1.60;0.50;;;7.00;81.80;;;;;;4996914;28;20224;-89
2024/02/23 12:02:26;;;;;;;0.90;0.80;;;6.90;82.70;;;;;;5415177;23;20238;-92
2024/02/23 12:05:33;;;;;;;1.00;0.70;;;6.80;83.20;;;;;;4998893;28;20572;-91
2024/02/23 12:08:46;;;;;;;2.35;0.70;;;6.90;82.70;;;;;;5002767;28;20188;-93
2024/02/23 12:11:17;;;;;;;0.60;0.57;;;6.90;80.30;;;;;;5018882;28;20228;-94
2024/02/23 12:13:45;;;;;;;0.85;0.80;;;6.70;81.70;;;;;;5001860;28;20202;-91
2024/02/23 12:16:12;;;;;;;1.23;0.65;;;6.80;81.60;;;;;;5000009;28;20204;-93
2024/02/23 12:36:20;;;;;;;0.95;0.70;;;6.70;77.40;;;;;;5003080;28;20211;-94
2024/02/23 12:42:14;;;;;;;0.50;0.50;;;6.90;77.10;;;;;;4999293;28;20190;-91
2024/02/23 12:44:42;;;;;;;1.15;0.60;;;6.90;71.70;;;;;;5003688;28;20184;-94
2024/02/23 12:47:09;;;;;;;0.73;0.50;;;6.80;71.60;;;;;;5009064;28;20214;-95
2024/02/23 12:53:55;;;;;;;1.02;0.75;;;6.70;71.60;;;;;;4997678;28;20188;-90
2024/02/23 12:57:10;;;;;;;1.08;0.73;;;6.60;74.20;;;;;;4995234;28;20715;-87
2024/02/23 12:59:38;;;;;;;1.92;0.63;;;6.50;76.80;;;;;;4993016;28;20206;-88
2024/02/23 13:11:55;;;;;;;1.00;0.60;;;6.80;75.60;;;;;;4955339;28;20248;-91
2024/02/23 13:42:29;;;;;;;0.43;0.43;;;6.50;71.20;;;;;;4975080;28;20185;-88
2024/02/23 14:01:41;;;;;;;1.40;0.60;;;6.80;71.60;;;;;;4994547;28;20176;-88
2024/02/23 14:04:59;;;;;;;0.55;0.32;;;6.70;67.60;;;;;;4994815;28;20196;-88
2024/02/23 14:07:26;;;;;;;2.15;0.70;;;6.70;71.50;;;;;;4997788;28;20199;-92
2024/02/23 14:09:53;;;;;;;0.68;0.65;;;6.60;71.40;;;;;;4996379;28;20200;-92
2024/02/23 14:12:20;;;;;;;0.70;0.50;;;6.50;69.60;;;;;;5008523;28;20278;-90
2024/02/23 14:14:48;;;;;;;0.50;0.50;;;6.50;71.30;;;;;;5000272;28;20215;-92
2024/02/23 14:17:16;;;;;;;0.93;0.60;;;6.40;68.00;;;;;;4995743;28;20200;-92
2024/02/23 14:19:43;;;;;;;1.40;0.60;;;6.40;71.20;;;;;;4999554;28;20205;-91
2024/02/23 14:25:40;;;;;;;1.00;0.85;;;6.30;71.10;;;;;;4996736;28;20195;-91
2024/02/23 14:28:09;;;;;;;0.70;0.70;;;6.30;71.10;;;;;;4985708;28;20679;-90
2024/02/23 14:30:40;;;;;;;0.63;0.60;;;6.30;71.10;;;;;;4984930;28;20573;-92
2024/02/23 14:33:12;;;;;;;0.80;0.70;;;6.30;75.00;;;;;;4982332;28;20223;-90
2024/02/23 14:35:39;;;;;;;1.65;0.90;;;6.20;72.60;;;;;;4997512;28;20200;-91
2024/02/23 14:38:06;;;;;;;1.25;1.15;;;6.10;73.20;;;;;;4993793;28;20211;-92
2024/02/23 14:40:33;;;;;;;1.77;0.80;;;6.10;74.20;;;;;;4993633;28;20207;-92
2024/02/23 14:43:00;;;;;;;0.93;0.70;;;6.10;76.00;;;;;;4993778;28;20196;-91
2024/02/23 14:45:27;;;;;;;0.75;0.75;;;5.90;77.50;;;;;;4995238;28;20211;-91
2024/02/23 14:47:58;;;;;;;0.88;0.80;;;5.90;78.10;;;;;;4995181;28;20553;-91
2024/02/23 14:50:26;;;;;;;1.70;1.20;;;5.80;81.00;;;;;;4999334;28;20243;-94
2024/02/23 14:52:53;;;;;;;0.70;0.70;;;6.00;82.00;;;;;;4985362;28;20210;-91
2024/02/23 14:55:24;;;;;;;4.70;2.03;;;5.90;81.10;;;;;;4982084;28;20212;-93
2024/02/23 14:57:51;;;;;;;7.13;4.77;;;6.00;82.60;;;;;;5008925;28;20742;-91
2024/02/23 15:00:19;;;;;;;1.60;1.27;;;5.90;81.40;;;;;;5015973;28;20206;-90
2024/02/23 15:02:46;;;;;;;2.20;1.50;;;5.90;81.10;;;;;;4999439;28;20204;-90
2024/02/23 15:05:13;;;;;;;0.60;0.60;;;5.80;81.40;;;;;;5017456;28;20207;-90
2024/02/23 15:08:03;;;;;;;3.53;2.53;;;5.70;82.20;;;;;;5020317;28;20202;-90
2024/02/23 15:10:30;;;;;;;1.90;0.90;;;5.70;84.00;;;;;;5016929;28;20225;-90
2024/02/23 15:12:56;;;;;;;3.47;2.40;;;5.70;83.70;;;;;;5017800;28;20223;-91
2024/02/23 15:22:50;;;;;;;1.03;0.90;;;5.60;86.40;;;;;;5016123;28;20193;-90
2024/02/23 15:25:18;;;;;;;1.47;1.20;;;5.60;86.20;;;;;;5008010;28;20723;-93
2024/02/23 15:27:45;;;;;;;4.10;0.77;;;5.60;86.60;;;;;;5012442;28;20206;-90
2024/02/23 15:34:15;;;;;;;1.27;0.93;;;5.60;86.60;;;;;;5016538;28;20209;-88
2024/02/23 15:36:41;;;;;;;1.47;1.00;;;5.40;87.80;;;;;;5016510;28;20209;-87
2024/02/23 15:39:08;;;;;;;1.97;1.10;;;5.30;88.20;;;;;;5015962;28;20211;-89
2024/02/23 15:41:36;;;;;;;1.30;1.20;;;5.20;89.10;;;;;;5016802;28;20203;-90
2024/02/23 15:44:04;;;;;;;2.50;0.90;;;5.30;89.10;;;;;;5017034;28;20209;-90
2024/02/23 15:49:57;;;;;;;1.30;0.87;;;5.20;89.10;;;;;;5016460;28;20207;-91
2024/02/23 15:52:24;;;;;;;1.37;0.90;;;5.20;89.10;;;;;;5011791;28;20729;-91
2024/02/23 15:54:51;;;;;;;3.17;1.00;;;5.20;89.10;;;;;;5012624;28;20219;-91
2024/02/23 15:57:22;;;;;;;1.00;0.70;;;5.30;89.20;;;;;;5174918;23;20303;-91
2024/02/23 16:04:04;;;;;;;0.77;0.67;;;5.10;89.10;;;;;;4981386;28;20539;-92
2024/02/23 16:21:00;;;;;;;1.40;0.90;;;5.00;89.20;;;;;;4998901;28;20938;-93
2024/02/23 16:23:30;;;;;;;2.43;0.97;;;5.00;90.10;;;;;;4995336;28;20669;-94
2024/02/23 16:25:57;;;;;;;1.93;0.90;;;4.90;90.20;;;;;;5003351;28;20200;-93
2024/02/23 16:32:06;;;;;;;3.20;1.13;;;4.80;90.90;;;;;;5004538;28;20273;-91
2024/02/23 16:58:24;;;;;;;1.40;0.80;;;4.60;92.50;;;;;;4999985;28;20214;-94
2024/02/23 17:09:01;;;;;;;1.13;0.90;;;4.60;93.10;;;;;;4997006;28;20188;-90
2024/02/23 17:11:30;;;;;;;1.30;1.10;;;4.60;93.00;;;;;;4998052;28;20223;-91
2024/02/23 17:13:57;;;;;;;3.13;1.17;;;4.60;93.30;;;;;;4998643;28;20192;-92
2024/02/23 17:20:17;;;;;;;1.77;0.90;;;4.60;93.50;;;;;;5008765;28;20179;-92
2024/02/23 17:22:45;;;;;;;1.33;0.80;;;4.50;94.20;;;;;;4980132;28;20232;-92
2024/02/23 17:25:13;;;;;;;1.17;0.80;;;4.40;94.20;;;;;;4978723;28;20531;-92
2024/02/23 17:48:43;;;;;;;1.30;0.90;;;4.60;93.60;;;;;;4997512;28;20195;-91
2024/02/23 17:55:00;;;;;;;1.50;1.27;;;4.60;94.00;;;;;;5008007;28;20207;-94
2024/02/23 18:10:40;;;;;;;2.10;1.10;;;4.20;95.40;;;;;;4996041;28;20194;-89
2024/02/23 18:13:07;;;;;;;1.33;1.10;;;4.10;95.20;;;;;;4995566;28;20203;-90
2024/02/23 18:15:35;;;;;;;2.07;1.37;;;4.10;94.90;;;;;;4997464;28;20192;-89
2024/02/23 18:21:34;;;;;;;1.97;1.50;;;4.20;95.40;;;;;;4999404;28;20628;-91
2024/02/23 18:24:01;;;;;;;1.93;1.53;;;4.20;94.90;;;;;;4993721;28;20204;-90
2024/02/23 18:26:29;;;;;;;2.27;1.40;;;4.20;95.20;;;;;;4993804;28;20200;-89
2024/02/23 18:46:14;;;;;;;0.90;0.90;;;4.30;94.90;;;;;;4991443;28;20227;-90
2024/02/23 18:49:03;;;;;;;4.20;0.90;;;4.30;94.90;;;;;;4994643;28;20211;-89
2024/02/23 18:51:31;;;;;;;0.90;0.90;;;4.20;95.20;;;;;;4994475;28;20218;-88
2024/02/23 18:53:58;;;;;;;1.13;1.00;;;4.20;95.50;;;;;;4978385;28;20279;-89
2024/02/23 19:35:17;;;;;;;4.67;3.00;;;4.10;95.40;;;;;;6060870;23;20187;-89
2024/02/23 19:37:44;;;;;;;3.40;2.00;;;4.10;95.00;;;;;;4993535;28;20213;-88
2024/02/23 21:06:06;;;;;;;3.77;2.30;;;4.00;96.20;;;;;;5858623;23;20294;-90
2024/02/23 21:08:33;;;;;;;4.13;3.10;;;4.20;96.30;;;;;;4993501;28;20200;-90
2024/02/23 21:11:00;;;;;;;5.53;4.00;;;4.30;96.70;;;;;;4995149;28;20291;-90
2024/02/23 21:16:52;;;;;;;3.70;2.63;;;4.00;96.00;;;;;;4995665;28;20295;-90
2024/02/23 21:37:08;;;;;;;3.60;2.93;;;4.10;97.80;;;;;;4995560;28;20193;-90
2024/02/23 22:16:21;;;;;;;3.07;2.63;;;3.80;97.00;;;;;;4994878;28;20207;-88
